createdAt,value
2018-12-13T00:01:44.641Z,2.08
2018-12-13T00:04:13.352Z,2.05
2018-12-13T00:06:42.142Z,2.10
2018-12-13T00:09:10.885Z,2.09
2018-12-13T00:11:39.591Z,2.00
2018-12-13T00:14:08.444Z,2.05
2018-12-13T00:16:37.132Z,1.97
2018-12-13T00:19:05.844Z,1.79
2018-12-13T00:21:34.639Z,1.68
2018-12-13T00:24:03.462Z,1.89
2018-12-13T00:26:32.141Z,1.80
2018-12-13T00:29:00.934Z,1.88
2018-12-13T00:31:29.699Z,1.91
2018-12-13T00:33:58.478Z,1.89
2018-12-13T00:36:27.197Z,1.88
2018-12-13T00:38:55.919Z,1.88
2018-12-13T00:41:24.921Z,1.86
2018-12-13T00:43:53.646Z,1.89
2018-12-13T00:46:22.512Z,1.88
2018-12-13T00:48:51.283Z,1.81
2018-12-13T00:51:20.002Z,1.87
2018-12-13T00:53:48.823Z,1.91
2018-12-13T00:56:17.496Z,1.99
2018-12-13T00:58:46.207Z,2.00
2018-12-13T01:01:15.138Z,2.07
2018-12-13T01:03:43.853Z,1.83
2018-12-13T01:06:12.639Z,1.74
2018-12-13T01:08:41.519Z,1.81
2018-12-13T01:11:10.329Z,1.89
2018-12-13T01:13:39.002Z,1.85
2018-12-13T01:16:09.931Z,1.83
2018-12-13T01:18:38.735Z,1.85
2018-12-13T01:21:07.425Z,1.78
2018-12-13T01:23:36.259Z,1.79
2018-12-13T01:26:04.996Z,1.77
2018-12-13T01:28:33.759Z,1.85
2018-12-13T01:31:02.470Z,1.73
2018-12-13T01:33:31.183Z,1.70
2018-12-13T01:35:59.972Z,1.66
2018-12-13T01:38:28.858Z,1.71
2018-12-13T01:40:57.657Z,1.68
2018-12-13T01:43:26.432Z,1.69
2018-12-13T01:45:55.151Z,1.43
2018-12-13T01:48:23.927Z,1.59
2018-12-13T01:50:52.711Z,1.69
2018-12-13T01:53:21.486Z,1.69
2018-12-13T01:55:50.266Z,1.73
2018-12-13T01:58:19.084Z,1.64
2018-12-13T02:00:47.842Z,1.63
2018-12-13T02:03:16.517Z,1.50
2018-12-13T02:05:45.483Z,1.53
2018-12-13T02:08:14.168Z,1.58
2018-12-13T02:10:43.003Z,1.47
2018-12-13T02:13:11.951Z,1.46
2018-12-13T02:15:40.687Z,1.49
2018-12-13T02:18:09.380Z,1.28
2018-12-13T02:20:38.245Z,1.32
2018-12-13T02:23:07.023Z,1.24
2018-12-13T02:25:35.720Z,1.26
2018-12-13T02:28:04.441Z,1.25
2018-12-13T02:30:33.150Z,1.24
2018-12-13T02:33:01.866Z,1.35
2018-12-13T02:35:30.538Z,1.31
2018-12-13T02:37:59.216Z,1.30
2018-12-13T02:40:27.977Z,1.26
2018-12-13T02:42:56.752Z,1.44
2018-12-13T02:45:25.459Z,1.40
2018-12-13T02:47:54.187Z,1.25
2018-12-13T02:50:22.916Z,1.10
2018-12-13T02:52:51.790Z,1.28
2018-12-13T02:55:21.215Z,1.34
2018-12-13T02:57:49.984Z,1.39
2018-12-13T03:00:18.703Z,1.33
2018-12-13T03:02:47.504Z,1.47
2018-12-13T03:05:16.962Z,1.37
2018-12-13T03:07:45.849Z,1.41
2018-12-13T03:10:14.550Z,1.37
2018-12-13T03:12:43.502Z,1.34
2018-12-13T03:15:12.241Z,1.32
2018-12-13T03:17:41.016Z,1.39
2018-12-13T03:20:09.743Z,1.42
2018-12-13T03:22:38.432Z,1.26
2018-12-13T03:25:07.210Z,1.25
2018-12-13T03:27:35.931Z,1.19
2018-12-13T03:30:05.426Z,1.09
2018-12-13T03:32:34.204Z,1.03
2018-12-13T03:35:02.927Z,0.99
2018-12-13T03:37:31.611Z,0.95
2018-12-13T03:40:00.351Z,0.90
2018-12-13T03:42:29.349Z,0.91
2018-12-13T03:44:58.028Z,0.79
2018-12-13T03:47:26.818Z,0.80
2018-12-13T03:49:55.789Z,0.91
2018-12-13T03:52:24.536Z,1.01
2018-12-13T03:54:53.383Z,1.03
2018-12-13T03:57:22.081Z,0.81
2018-12-13T03:59:50.890Z,0.89
2018-12-13T04:02:19.697Z,0.75
2018-12-13T04:04:48.451Z,0.77
2018-12-13T04:07:17.204Z,0.81
2018-12-13T04:09:46.033Z,0.65
2018-12-13T04:12:14.745Z,0.44
2018-12-13T04:14:43.763Z,0.43
2018-12-13T04:17:12.783Z,0.31
2018-12-13T04:19:41.487Z,0.44
2018-12-13T04:22:10.177Z,0.51
2018-12-13T04:24:38.944Z,0.65
2018-12-13T04:27:07.732Z,0.64
2018-12-13T04:29:36.519Z,0.69
2018-12-13T04:32:05.210Z,0.74
2018-12-13T04:34:33.933Z,0.69
2018-12-13T04:37:02.738Z,0.74
2018-12-13T04:39:31.449Z,0.70
2018-12-13T04:42:00.184Z,0.62
2018-12-13T04:44:28.849Z,0.82
2018-12-13T04:46:57.602Z,0.85
2018-12-13T04:49:26.282Z,0.80
2018-12-13T04:51:55.004Z,0.85
2018-12-13T04:54:23.748Z,0.73
2018-12-13T04:56:52.411Z,0.57
2018-12-13T04:59:21.158Z,0.77
2018-12-13T05:01:50.012Z,0.62
2018-12-13T05:04:18.758Z,0.80
2018-12-13T05:06:47.968Z,0.89
2018-12-13T05:09:16.863Z,0.86
2018-12-13T05:11:45.543Z,0.92
2018-12-13T05:14:14.350Z,0.77
2018-12-13T05:16:43.214Z,0.71
2018-12-13T05:19:11.914Z,0.83
2018-12-13T05:21:40.771Z,0.93
2018-12-13T05:24:09.585Z,0.66
2018-12-13T05:26:38.476Z,0.71
2018-12-13T05:29:07.308Z,0.73
2018-12-13T05:31:36.131Z,0.77
2018-12-13T05:34:05.087Z,0.63
2018-12-13T05:36:33.759Z,0.68
2018-12-13T05:39:02.586Z,0.76
2018-12-13T05:41:31.292Z,0.58
2018-12-13T05:43:59.989Z,0.57
2018-12-13T05:46:28.742Z,0.60
2018-12-13T05:48:57.695Z,0.55
2018-12-13T05:51:26.455Z,0.46
2018-12-13T05:53:55.180Z,0.51
2018-12-13T05:56:23.936Z,0.57
2018-12-13T05:58:52.752Z,0.64
2018-12-13T06:01:21.579Z,0.62
2018-12-13T06:03:50.259Z,0.71
2018-12-13T06:06:19.019Z,0.69
2018-12-13T06:08:47.862Z,0.67
2018-12-13T06:11:16.699Z,0.73
2018-12-13T06:13:45.601Z,0.62
2018-12-13T06:16:14.903Z,0.75
2018-12-13T06:18:43.706Z,0.61
2018-12-13T06:21:12.433Z,0.66
2018-12-13T06:23:41.523Z,0.61
2018-12-13T06:26:10.264Z,0.67
2018-12-13T06:28:39.272Z,0.63
2018-12-13T06:31:07.985Z,0.39
2018-12-13T06:33:36.686Z,0.47
2018-12-13T06:36:05.505Z,0.68
2018-12-13T06:38:34.347Z,0.64
2018-12-13T06:41:03.048Z,0.70
2018-12-13T06:43:31.754Z,0.66
2018-12-13T06:46:00.686Z,0.62
2018-12-13T06:48:30.136Z,0.45
2018-12-13T06:50:58.831Z,0.40
2018-12-13T06:53:27.640Z,0.48
2018-12-13T06:55:56.365Z,0.51
2018-12-13T06:58:25.101Z,0.49
2018-12-13T07:00:53.794Z,0.42
2018-12-13T07:03:22.560Z,0.54
2018-12-13T07:05:51.344Z,0.47
2018-12-13T07:08:20.107Z,0.43
2018-12-13T07:10:48.824Z,0.46
2018-12-13T07:13:17.717Z,0.49
2018-12-13T07:15:46.416Z,0.48
2018-12-13T07:18:15.213Z,0.46
2018-12-13T07:20:43.943Z,0.55
2018-12-13T07:23:12.831Z,0.59
2018-12-13T07:25:41.562Z,0.54
2018-12-13T07:28:10.260Z,0.46
2018-12-13T07:30:39.156Z,0.61
2018-12-13T07:33:07.875Z,0.50
2018-12-13T07:35:37.189Z,0.47
2018-12-13T07:38:05.913Z,0.51
2018-12-13T07:40:35.451Z,0.58
2018-12-13T07:43:04.239Z,0.74
2018-12-13T07:45:33.069Z,0.82
2018-12-13T07:48:01.817Z,0.89
2018-12-13T07:50:30.593Z,0.89
2018-12-13T07:52:59.303Z,0.92
2018-12-13T07:55:28.054Z,0.74
2018-12-13T07:57:56.862Z,0.86
2018-12-13T08:00:26.052Z,0.72
2018-12-13T08:02:54.776Z,0.79
2018-12-13T08:05:24.184Z,0.92
2018-12-13T08:07:53.302Z,0.98
2018-12-13T08:10:22.029Z,0.95
2018-12-13T08:12:50.743Z,1.05
2018-12-13T08:15:19.691Z,1.11
2018-12-13T08:17:49.279Z,1.22
2018-12-13T08:20:18.277Z,1.06
2018-12-13T08:22:47.291Z,0.98
2018-12-13T08:25:16.216Z,1.12
2018-12-13T08:27:45.256Z,0.99
2018-12-13T08:30:14.280Z,0.99
2018-12-13T08:32:43.159Z,0.95
2018-12-13T08:35:12.169Z,1.14
2018-12-13T08:37:41.231Z,1.19
2018-12-13T08:40:10.347Z,1.31
2018-12-13T08:42:39.557Z,1.44
2018-12-13T08:45:08.624Z,1.48
2018-12-13T08:47:37.724Z,1.55
2018-12-13T08:50:07.341Z,1.57
2018-12-13T08:52:36.424Z,1.60
2018-12-13T08:55:05.824Z,1.55
2018-12-13T08:57:34.851Z,1.37
2018-12-13T09:00:03.973Z,1.43
2018-12-13T09:02:33.075Z,1.60
2018-12-13T09:05:02.215Z,1.50
2018-12-13T09:07:31.432Z,1.52
2018-12-13T09:10:00.460Z,1.61
2018-12-13T09:12:29.561Z,1.66
2018-12-13T09:14:58.791Z,1.89
2018-12-13T09:17:28.210Z,1.83
2018-12-13T09:19:57.626Z,2.14
2018-12-13T09:22:26.603Z,2.12
2018-12-13T09:24:55.824Z,2.34
2018-12-13T09:27:24.745Z,2.33
2018-12-13T09:29:53.727Z,2.50
2018-12-13T09:32:23.028Z,2.34
2018-12-13T09:34:52.176Z,2.61
2018-12-13T09:37:21.293Z,2.60
2018-12-13T09:39:50.496Z,2.62
2018-12-13T09:42:19.506Z,2.73
2018-12-13T09:44:48.431Z,2.73
2018-12-13T09:47:19.125Z,2.70
2018-12-13T09:49:48.146Z,2.61
2018-12-13T09:52:17.247Z,2.65
2018-12-13T09:54:46.386Z,2.80
2018-12-13T09:57:18.155Z,2.74
2018-12-13T09:59:47.155Z,2.80
2018-12-13T10:02:16.083Z,2.62
2018-12-13T10:04:45.682Z,2.78
2018-12-13T10:07:14.855Z,3.02
2018-12-13T10:09:43.920Z,3.12
2018-12-13T10:12:13.445Z,3.11
2018-12-13T10:14:42.520Z,3.48
2018-12-13T10:17:11.673Z,3.44
2018-12-13T10:19:40.834Z,3.44
2018-12-13T10:22:11.867Z,3.50
2018-12-13T10:24:40.887Z,3.46
2018-12-13T10:27:09.890Z,3.23
2018-12-13T10:29:39.034Z,3.23
2018-12-13T10:32:15.511Z,3.19
2018-12-13T10:34:44.424Z,3.20
2018-12-13T10:37:13.759Z,3.27
2018-12-13T10:39:42.874Z,3.35
2018-12-13T10:42:12.807Z,3.09
2018-12-13T10:44:42.708Z,3.25
2018-12-13T10:47:11.784Z,3.42
2018-12-13T10:49:40.988Z,3.31
2018-12-13T10:52:10.663Z,3.54
2018-12-13T10:54:39.730Z,3.42
2018-12-13T10:57:08.964Z,3.45
2018-12-13T10:59:38.009Z,3.55
2018-12-13T11:02:11.118Z,3.65
2018-12-13T11:04:40.130Z,3.57
2018-12-13T11:07:09.251Z,3.54
2018-12-13T11:09:38.328Z,3.28
2018-12-13T11:12:07.248Z,3.45
2018-12-13T11:14:36.495Z,3.47
2018-12-13T11:17:05.538Z,3.74
2018-12-13T11:19:34.358Z,3.78
2018-12-13T11:22:03.377Z,3.74
2018-12-13T11:24:32.254Z,3.88
2018-12-13T11:28:14.623Z,3.99
2018-12-13T11:30:44.043Z,4.05
2018-12-13T11:33:13.334Z,3.66
2018-12-13T11:35:42.411Z,3.92
2018-12-13T11:38:11.296Z,3.87
2018-12-13T11:40:40.327Z,4.01
2018-12-13T11:43:09.383Z,4.04
2018-12-13T11:45:38.316Z,4.02
2018-12-13T11:48:07.368Z,4.05
2018-12-13T11:50:36.656Z,4.13
2018-12-13T11:53:05.565Z,4.23
2018-12-13T11:55:37.563Z,4.10
2018-12-13T11:58:08.503Z,4.33
2018-12-13T12:00:38.231Z,4.22
2018-12-13T12:03:07.791Z,4.21
2018-12-13T12:05:37.333Z,4.36
2018-12-13T12:08:06.902Z,3.97
2018-12-13T12:10:36.415Z,4.21
2018-12-13T12:13:05.892Z,4.06
2018-12-13T12:15:35.669Z,4.01
2018-12-13T12:18:05.332Z,4.04
2018-12-13T12:20:34.791Z,4.02
2018-12-13T12:23:04.258Z,3.90
2018-12-13T12:25:34.031Z,3.50
2018-12-13T12:28:03.430Z,3.32
2018-12-13T12:30:32.979Z,3.08
2018-12-13T12:33:02.785Z,3.06
2018-12-13T12:35:32.434Z,3.21
2018-12-13T12:38:02.147Z,3.35
2018-12-13T12:40:32.122Z,3.46
2018-12-13T12:43:01.370Z,3.27
2018-12-13T12:45:30.570Z,3.33
2018-12-13T12:48:00.267Z,3.31
2018-12-13T12:50:30.356Z,3.37
2018-12-13T12:53:00.064Z,3.26
2018-12-13T12:55:29.966Z,3.35
2018-12-13T12:57:59.783Z,3.16
2018-12-13T13:00:29.771Z,3.30
2018-12-13T13:02:59.548Z,3.12
2018-12-13T13:05:29.267Z,3.11
2018-12-13T13:07:58.967Z,3.01
2018-12-13T13:10:28.642Z,3.20
2018-12-13T13:12:58.375Z,3.24
2018-12-13T13:15:28.256Z,3.34
2018-12-13T13:17:57.887Z,3.09
2018-12-13T13:20:27.674Z,3.25
2018-12-13T13:22:57.716Z,3.29
2018-12-13T13:25:27.662Z,3.11
2018-12-13T13:27:57.343Z,2.90
2018-12-13T13:30:27.094Z,3.10
2018-12-13T13:32:56.639Z,2.98
2018-12-13T13:35:26.697Z,3.12
2018-12-13T13:37:56.470Z,3.21
2018-12-13T13:40:26.225Z,2.90
2018-12-13T13:42:56.002Z,2.90
2018-12-13T13:45:26.131Z,3.08
2018-12-13T13:47:56.110Z,2.96
2018-12-13T13:50:26.722Z,2.86
2018-12-13T13:52:56.627Z,2.77
2018-12-13T13:55:26.416Z,2.66
2018-12-13T13:57:56.044Z,2.82
2018-12-13T14:00:25.806Z,2.88
2018-12-13T14:02:55.331Z,2.88
2018-12-13T14:05:25.256Z,2.70
2018-12-13T14:07:54.870Z,2.79
2018-12-13T14:10:24.814Z,2.87
2018-12-13T14:12:54.267Z,2.80
2018-12-13T14:15:24.291Z,2.77
2018-12-13T14:17:53.807Z,2.82
2018-12-13T14:20:23.856Z,3.12
2018-12-13T14:22:53.851Z,3.04
2018-12-13T14:25:23.748Z,3.13
2018-12-13T14:27:53.579Z,2.69
2018-12-13T14:30:24.022Z,2.89
2018-12-13T14:32:53.922Z,2.87
2018-12-13T14:35:23.723Z,2.99
2018-12-13T14:37:52.716Z,2.77
2018-12-13T14:40:21.797Z,2.83
2018-12-13T14:42:51.019Z,2.82
2018-12-13T14:45:20.148Z,2.79
2018-12-13T14:47:49.312Z,2.68
2018-12-13T14:50:18.386Z,2.68
2018-12-13T14:52:47.639Z,2.59
2018-12-13T14:55:16.787Z,2.85
2018-12-13T14:57:45.900Z,2.51
2018-12-13T15:00:15.168Z,2.54
2018-12-13T15:02:44.255Z,2.61
2018-12-13T15:05:13.833Z,2.55
2018-12-13T15:07:42.970Z,2.64
2018-12-13T15:10:12.175Z,2.81
2018-12-13T15:12:41.244Z,2.85
2018-12-13T15:15:11.120Z,2.91
2018-12-13T15:17:40.316Z,2.66
2018-12-13T15:20:09.486Z,2.83
2018-12-13T15:22:38.655Z,2.72
2018-12-13T15:25:08.191Z,2.82
2018-12-13T15:27:37.332Z,2.80
2018-12-13T15:30:09.664Z,2.95
2018-12-13T15:32:38.907Z,2.94
2018-12-13T15:35:07.845Z,3.09
2018-12-13T15:37:37.067Z,2.75
2018-12-13T15:40:07.273Z,2.77
2018-12-13T15:42:36.688Z,2.98
2018-12-13T15:45:06.856Z,2.82
2018-12-13T15:47:36.056Z,2.83
2018-12-13T15:50:05.545Z,2.94
2018-12-13T15:52:34.371Z,2.99
2018-12-13T15:55:03.778Z,3.10
2018-12-13T15:57:33.236Z,2.97
2018-12-13T16:00:02.301Z,2.93
2018-12-13T16:02:31.323Z,2.61
2018-12-13T16:05:00.343Z,2.86
2018-12-13T16:07:29.404Z,2.66
2018-12-13T16:10:03.877Z,2.71
2018-12-13T16:12:29.525Z,2.86
2018-12-13T16:14:58.960Z,2.99
2018-12-13T16:17:28.319Z,2.63
2018-12-13T16:19:57.392Z,2.60
2018-12-13T16:22:26.240Z,2.93
2018-12-13T16:24:55.247Z,3.06
2018-12-13T16:27:24.327Z,2.84
2018-12-13T16:29:53.379Z,2.85
2018-12-13T16:32:22.416Z,2.93
2018-12-13T16:34:52.488Z,3.00
2018-12-13T16:37:21.531Z,2.95
2018-12-13T16:39:50.593Z,2.74
2018-12-13T16:42:19.619Z,2.87
2018-12-13T16:44:48.747Z,2.97
2018-12-13T16:47:17.921Z,2.96
2018-12-13T16:49:47.030Z,2.91
2018-12-13T16:52:16.009Z,2.82
2018-12-13T16:54:45.016Z,2.66
2018-12-13T16:57:14.101Z,2.62
2018-12-13T16:59:43.215Z,2.64
2018-12-13T17:02:12.194Z,2.37
2018-12-13T17:04:41.421Z,2.47
2018-12-13T17:07:10.514Z,2.58
2018-12-13T17:09:39.466Z,2.63
2018-12-13T17:12:08.813Z,2.54
2018-12-13T17:14:37.717Z,2.70
2018-12-13T17:17:07.781Z,2.78
2018-12-13T17:19:36.861Z,2.80
2018-12-13T17:22:06.000Z,2.75
2018-12-13T17:24:35.105Z,2.65
2018-12-13T17:27:04.086Z,2.51
2018-12-13T17:29:33.077Z,2.83
2018-12-13T17:32:02.607Z,2.74
2018-12-13T17:34:31.809Z,2.49
2018-12-13T17:37:00.981Z,2.56
2018-12-13T17:39:30.281Z,2.45
2018-12-13T17:41:59.479Z,2.62
2018-12-13T17:44:28.393Z,2.75
2018-12-13T17:46:57.353Z,2.68
2018-12-13T17:49:26.619Z,2.77
2018-12-13T17:51:55.953Z,2.93
2018-12-13T17:54:25.243Z,2.82
2018-12-13T17:56:54.258Z,2.63
2018-12-13T17:59:23.362Z,2.85
2018-12-13T18:01:52.359Z,2.86
2018-12-13T18:04:21.453Z,2.90
2018-12-13T18:06:50.409Z,2.91
2018-12-13T18:09:19.545Z,2.83
2018-12-13T18:11:48.538Z,3.00
2018-12-13T18:14:17.559Z,2.87
2018-12-13T18:16:46.924Z,2.96
2018-12-13T18:19:15.836Z,2.98
2018-12-13T18:21:44.951Z,2.98
2018-12-13T18:24:13.945Z,2.87
2018-12-13T18:26:43.048Z,2.88
2018-12-13T18:29:12.067Z,2.72
2018-12-13T18:31:41.226Z,2.66
2018-12-13T18:34:10.195Z,2.70
2018-12-13T18:36:39.395Z,2.50
2018-12-13T18:39:09.024Z,2.56
2018-12-13T18:41:38.097Z,2.59
2018-12-13T18:44:07.364Z,2.78
2018-12-13T18:46:36.834Z,2.75
2018-12-13T18:49:05.886Z,2.79
2018-12-13T18:51:34.785Z,2.83
2018-12-13T18:54:03.791Z,2.81
2018-12-13T18:56:32.853Z,2.84
2018-12-13T18:59:01.891Z,2.77
2018-12-13T19:01:31.117Z,2.54
2018-12-13T19:04:00.128Z,2.61
2018-12-13T19:06:29.510Z,2.70
2018-12-13T19:08:58.680Z,2.71
2018-12-13T19:11:27.589Z,2.75
2018-12-13T19:13:56.552Z,2.78
2018-12-13T19:16:25.639Z,2.96
2018-12-13T19:18:54.587Z,3.00
2018-12-13T19:21:23.648Z,2.90
2018-12-13T19:23:52.648Z,2.71
2018-12-13T19:26:21.636Z,2.73
2018-12-13T19:28:50.741Z,2.85
2018-12-13T19:31:19.700Z,2.85
2018-12-13T19:33:48.828Z,2.79
2018-12-13T19:36:17.869Z,2.65
2018-12-13T19:38:46.779Z,2.72
2018-12-13T19:41:16.085Z,2.75
2018-12-13T19:43:45.297Z,2.56
2018-12-13T19:46:14.335Z,2.70
2018-12-13T19:48:43.940Z,2.65
2018-12-13T19:51:13.130Z,2.70
2018-12-13T19:53:42.494Z,2.55
2018-12-13T19:56:11.640Z,2.73
2018-12-13T19:58:40.848Z,2.90
2018-12-13T20:01:09.804Z,2.69
2018-12-13T20:03:38.828Z,2.85
2018-12-13T20:06:08.958Z,2.76
2018-12-13T20:08:38.106Z,2.50
2018-12-13T20:11:07.280Z,2.45
2018-12-13T20:13:36.307Z,2.36
2018-12-13T20:16:05.380Z,2.45
2018-12-13T20:18:34.501Z,2.46
2018-12-13T20:21:03.884Z,2.59
2018-12-13T20:23:32.930Z,2.74
2018-12-13T20:26:02.099Z,2.77
2018-12-13T20:28:31.183Z,2.58
2018-12-13T20:31:00.285Z,2.65
2018-12-13T20:33:29.572Z,2.51
2018-12-13T20:35:58.810Z,2.73
2018-12-13T20:38:27.661Z,2.56
2018-12-13T20:41:00.929Z,2.56
2018-12-13T20:43:27.780Z,2.65
2018-12-13T20:45:56.917Z,2.68
2018-12-13T20:48:26.072Z,2.62
2018-12-13T20:50:55.127Z,2.58
2018-12-13T20:53:24.381Z,2.58
2018-12-13T20:55:53.397Z,2.55
2018-12-13T20:58:22.389Z,2.56
2018-12-13T21:00:53.261Z,2.59
2018-12-13T21:03:22.240Z,2.72
2018-12-13T21:05:51.274Z,2.61
2018-12-13T21:08:20.585Z,2.56
2018-12-13T21:10:49.648Z,2.65
2018-12-13T21:13:18.992Z,2.51
2018-12-13T21:15:48.064Z,2.44
2018-12-13T21:18:16.831Z,2.32
2018-12-13T21:20:46.096Z,2.44
2018-12-13T21:23:15.088Z,2.34
2018-12-13T21:25:44.285Z,2.36
2018-12-13T21:28:13.411Z,2.39
2018-12-13T21:30:42.478Z,2.39
2018-12-13T21:33:11.712Z,2.35
2018-12-13T21:35:40.676Z,1.99
2018-12-13T21:38:09.708Z,2.16
2018-12-13T21:40:38.772Z,2.34
2018-12-13T21:43:07.844Z,2.34
2018-12-13T21:45:36.999Z,2.57
2018-12-13T21:48:06.034Z,2.29
2018-12-13T21:50:35.163Z,2.41
2018-12-13T21:53:04.125Z,2.37
2018-12-13T21:55:33.139Z,2.27
2018-12-13T21:58:02.212Z,2.22
2018-12-13T22:00:31.342Z,2.29
2018-12-13T22:03:00.215Z,2.41
2018-12-13T22:05:29.221Z,2.21
2018-12-13T22:07:58.238Z,2.15
2018-12-13T22:10:27.508Z,2.13
2018-12-13T22:12:56.555Z,2.25
2018-12-13T22:15:25.813Z,2.21
2018-12-13T22:17:54.899Z,2.29
2018-12-13T22:20:23.975Z,2.23
2018-12-13T22:22:52.992Z,2.38
2018-12-13T22:25:22.316Z,2.41
2018-12-13T22:27:51.436Z,2.36
2018-12-13T22:30:20.672Z,2.41
2018-12-13T22:32:49.668Z,1.95
2018-12-13T22:35:18.698Z,2.09
2018-12-13T22:37:48.808Z,2.05
2018-12-13T22:40:18.061Z,2.16
2018-12-13T22:42:47.067Z,2.09
2018-12-13T22:45:16.104Z,2.13
2018-12-13T22:47:45.167Z,2.18
2018-12-13T22:50:14.497Z,2.30
2018-12-13T22:52:43.655Z,2.28
2018-12-13T22:55:12.580Z,2.27
2018-12-13T22:57:41.664Z,2.18
2018-12-13T23:00:12.876Z,2.26
2018-12-13T23:02:41.825Z,2.29
2018-12-13T23:05:10.694Z,2.27
2018-12-13T23:07:39.416Z,2.02
2018-12-13T23:10:08.552Z,2.29
2018-12-13T23:12:37.292Z,2.17
2018-12-13T23:15:06.484Z,2.15
2018-12-13T23:17:35.218Z,2.22
2018-12-13T23:20:04.331Z,2.38
2018-12-13T23:22:33.027Z,2.35
2018-12-13T23:25:01.761Z,2.34
2018-12-13T23:27:30.447Z,2.07
2018-12-13T23:29:59.265Z,2.13
2018-12-13T23:32:28.139Z,1.79
2018-12-13T23:34:56.858Z,2.07
2018-12-13T23:37:25.677Z,2.14
2018-12-13T23:39:54.416Z,2.33
2018-12-13T23:42:23.222Z,2.16
2018-12-13T23:44:51.961Z,2.24
2018-12-13T23:47:20.729Z,2.11
2018-12-13T23:49:49.463Z,2.06
2018-12-13T23:52:18.220Z,1.97
2018-12-13T23:54:47.012Z,1.98
2018-12-13T23:57:15.789Z,2.12
2018-12-13T23:59:44.599Z,2.13
